createdAt,value
2019-04-14T00:00:38.329Z,97.53
2019-04-14T00:01:38.894Z,97.74
2019-04-14T00:02:38.206Z,97.63
2019-04-14T00:03:38.992Z,97.89
2019-04-14T00:04:37.951Z,97.78
2019-04-14T00:05:38.623Z,97.68
2019-04-14T00:06:37.884Z,97.78
2019-04-14T00:07:38.481Z,97.99
2019-04-14T00:08:37.898Z,97.99
2019-04-14T00:09:38.069Z,98.21
2019-04-14T00:10:37.894Z,98.21
2019-04-14T00:11:38.691Z,97.99
2019-04-14T00:12:38.404Z,97.99
2019-04-14T00:13:37.834Z,98.10
2019-04-14T00:14:38.256Z,98.10
2019-04-14T00:15:42.697Z,98.21
2019-04-14T00:16:38.794Z,98.10
2019-04-14T00:17:37.768Z,98.05
2019-04-14T00:18:38.257Z,98.47
2019-04-14T00:19:37.748Z,98.47
2019-04-14T00:20:38.235Z,98.43
2019-04-14T00:21:38.864Z,98.22
2019-04-14T00:22:38.124Z,98.11
2019-04-14T00:23:37.706Z,98.22
2019-04-14T00:24:38.126Z,98.43
2019-04-14T00:25:37.694Z,98.22
2019-04-14T00:26:37.988Z,98.43
2019-04-14T00:27:38.546Z,98.22
2019-04-14T00:28:38.274Z,98.22
2019-04-14T00:29:37.669Z,98.01
2019-04-14T00:30:38.243Z,97.91
2019-04-14T00:31:37.647Z,97.91
2019-04-14T00:32:37.924Z,97.86
2019-04-14T00:33:38.821Z,97.65
2019-04-14T00:34:37.684Z,97.75
2019-04-14T00:35:38.567Z,97.71
2019-04-14T00:36:37.590Z,97.71
2019-04-14T00:37:38.061Z,98.02
2019-04-14T00:38:37.549Z,97.81
2019-04-14T00:39:37.955Z,98.13
2019-04-14T00:40:37.552Z,97.81
2019-04-14T00:41:44.816Z,97.61
2019-04-14T00:42:38.790Z,98.13
2019-04-14T00:43:37.510Z,97.50
2019-04-14T00:44:38.666Z,97.50
2019-04-14T00:45:45.264Z,97.29
2019-04-14T00:46:38.793Z,96.77
2019-04-14T00:47:49.825Z,96.88
2019-04-14T00:48:38.740Z,97.08
2019-04-14T00:49:37.630Z,96.88
2019-04-14T00:50:38.679Z,96.94
2019-04-14T00:51:39.340Z,96.98
2019-04-14T00:52:37.446Z,97.14
2019-04-14T00:53:38.178Z,96.83
2019-04-14T00:54:37.411Z,96.94
2019-04-14T00:55:37.994Z,97.14
2019-04-14T00:56:37.362Z,96.94
2019-04-14T00:57:37.673Z,96.72
2019-04-14T00:58:37.351Z,96.72
2019-04-14T00:59:37.616Z,96.89
2019-04-14T01:00:38.593Z,96.68
2019-04-14T01:01:37.307Z,96.26
2019-04-14T01:02:38.489Z,96.26
2019-04-14T01:03:37.391Z,96.37
2019-04-14T01:04:38.291Z,96.16
2019-04-14T01:05:37.519Z,96.47
2019-04-14T01:06:38.259Z,96.37
2019-04-14T01:07:37.254Z,96.58
2019-04-14T01:08:38.095Z,96.37
2019-04-14T01:09:37.273Z,96.47
2019-04-14T01:10:37.228Z,96.58
2019-04-14T01:11:37.851Z,96.16
2019-04-14T01:12:37.193Z,96.05
2019-04-14T01:13:37.496Z,96.26
2019-04-14T01:14:37.272Z,96.01
2019-04-14T01:15:50.120Z,96.16
2019-04-14T01:16:38.613Z,96.01
2019-04-14T01:17:37.382Z,95.95
2019-04-14T01:18:37.130Z,95.84
2019-04-14T01:19:37.384Z,95.84
2019-04-14T01:20:38.259Z,95.43
2019-04-14T01:21:37.141Z,95.95
2019-04-14T01:22:38.085Z,95.28
2019-04-14T01:23:37.077Z,95.53
2019-04-14T01:24:38.124Z,95.28
2019-04-14T01:25:37.058Z,94.86
2019-04-14T01:26:37.800Z,94.76
2019-04-14T01:27:37.049Z,94.76
2019-04-14T01:28:37.561Z,94.86
2019-04-14T01:29:38.372Z,94.80
2019-04-14T01:30:37.292Z,94.96
2019-04-14T01:31:38.150Z,94.70
2019-04-14T01:32:37.233Z,95.01
2019-04-14T01:33:37.901Z,95.38
2019-04-14T01:34:37.104Z,94.80
2019-04-14T01:35:37.901Z,95.11
2019-04-14T01:36:36.960Z,94.27
2019-04-14T01:37:37.607Z,94.70
2019-04-14T01:38:36.933Z,94.38
2019-04-14T01:39:37.226Z,95.21
2019-04-14T01:40:38.048Z,95.01
2019-04-14T01:41:36.901Z,94.70
2019-04-14T01:42:37.736Z,94.49
2019-04-14T01:43:36.868Z,95.11
2019-04-14T01:44:37.367Z,95.32
2019-04-14T01:45:38.120Z,95.64
2019-04-14T01:46:37.417Z,95.74
2019-04-14T01:47:37.718Z,95.84
2019-04-14T01:48:36.816Z,95.84
2019-04-14T01:49:37.633Z,95.01
2019-04-14T01:50:36.799Z,95.74
2019-04-14T01:51:37.410Z,95.84
2019-04-14T01:52:36.798Z,95.90
2019-04-14T01:53:37.843Z,95.59
2019-04-14T01:54:36.753Z,95.90
2019-04-14T01:55:37.328Z,95.21
2019-04-14T01:56:36.732Z,95.74
2019-04-14T01:57:37.076Z,95.53
2019-04-14T01:58:36.762Z,95.70
2019-04-14T01:59:36.952Z,95.80
2019-04-14T02:00:36.693Z,95.80
2019-04-14T02:01:36.798Z,95.32
2019-04-14T02:02:37.712Z,94.96
2019-04-14T02:03:36.716Z,94.96
2019-04-14T02:04:37.719Z,95.32
2019-04-14T02:05:36.637Z,95.28
2019-04-14T02:06:37.619Z,95.38
2019-04-14T02:07:36.624Z,95.38
2019-04-14T02:08:37.231Z,95.28
2019-04-14T02:09:37.830Z,95.28
2019-04-14T02:10:36.894Z,94.76
2019-04-14T02:11:37.698Z,94.44
2019-04-14T02:12:36.632Z,94.23
2019-04-14T02:13:37.569Z,94.44
2019-04-14T02:14:36.573Z,94.34
2019-04-14T02:15:37.407Z,94.23
2019-04-14T02:16:44.299Z,93.82
2019-04-14T02:17:37.511Z,94.23
2019-04-14T02:18:36.541Z,94.55
2019-04-14T02:19:37.172Z,94.55
2019-04-14T02:20:36.482Z,94.71
2019-04-14T02:21:36.737Z,94.09
2019-04-14T02:22:37.609Z,94.50
2019-04-14T02:23:36.642Z,94.19
2019-04-14T02:24:37.493Z,93.98
2019-04-14T02:25:36.450Z,94.50
2019-04-14T02:26:37.346Z,94.40
2019-04-14T02:27:36.421Z,94.40
2019-04-14T02:28:37.531Z,94.29
2019-04-14T02:29:36.408Z,94.19
2019-04-14T02:30:45.732Z,94.50
2019-04-14T02:32:05.678Z,94.50
2019-04-14T02:33:09.105Z,94.50
2019-04-14T02:34:02.275Z,94.40
2019-04-14T02:35:02.897Z,94.19
2019-04-14T02:36:17.954Z,94.71
2019-04-14T02:37:06.606Z,94.71
2019-04-14T02:38:13.806Z,93.98
2019-04-14T02:39:06.148Z,94.09
2019-04-14T02:40:04.052Z,93.98
2019-04-14T02:42:19.411Z,94.50
2019-04-14T02:43:04.075Z,94.50
2019-04-14T02:44:04.885Z,94.50
2019-04-14T02:45:08.632Z,94.71
2019-04-14T02:47:36.383Z,94.19
2019-04-14T02:51:04.229Z,94.09
2019-04-14T02:52:04.690Z,94.40
2019-04-14T02:53:09.109Z,93.88
2019-04-14T02:54:10.056Z,94.09
2019-04-14T02:56:08.271Z,94.29
2019-04-14T02:58:04.347Z,94.09
2019-04-14T03:01:11.838Z,94.04
2019-04-14T03:02:19.651Z,93.84
2019-04-14T03:04:01.472Z,94.15
2019-04-14T03:07:05.480Z,94.46
2019-04-14T03:07:59.909Z,93.41
2019-04-14T03:09:13.855Z,93.31
2019-04-14T03:10:22.277Z,93.84
2019-04-14T03:11:01.312Z,93.31
2019-04-14T03:12:03.013Z,93.69
2019-04-14T03:13:06.820Z,92.44
2019-04-14T03:15:01.369Z,92.12
2019-04-14T03:16:02.170Z,92.44
2019-04-14T03:17:14.658Z,92.12
2019-04-14T03:18:57.918Z,92.44
2019-04-14T03:21:04.398Z,92.44
2019-04-14T03:22:13.111Z,92.02
2019-04-14T03:22:55.676Z,91.81
2019-04-14T03:24:06.052Z,91.71
2019-04-14T03:24:50.390Z,91.91
2019-04-14T03:25:57.410Z,91.39
2019-04-14T03:27:24.779Z,90.66
2019-04-14T03:28:04.168Z,90.77
2019-04-14T03:28:56.467Z,90.77
2019-04-14T03:31:24.631Z,90.66
2019-04-14T03:34:30.367Z,90.66
2019-04-14T03:35:23.256Z,90.87
2019-04-14T03:38:12.836Z,90.62
2019-04-14T03:39:05.989Z,90.87
2019-04-14T03:39:57.264Z,90.52
2019-04-14T03:41:08.885Z,90.66
2019-04-14T03:42:01.623Z,90.66
2019-04-14T03:44:07.166Z,91.91
2019-04-14T03:45:04.177Z,91.71
2019-04-14T03:46:12.863Z,91.60
2019-04-14T03:48:34.439Z,91.39
2019-04-14T03:50:06.141Z,91.60
2019-04-14T03:51:06.828Z,91.91
2019-04-14T03:52:02.489Z,91.25
2019-04-14T03:53:05.889Z,92.50
2019-04-14T03:53:58.678Z,92.33
2019-04-14T03:54:55.250Z,92.40
2019-04-14T03:55:45.326Z,92.44
2019-04-14T03:56:37.545Z,91.87
2019-04-14T03:57:36.620Z,92.50
2019-04-14T03:58:35.773Z,92.65
2019-04-14T03:59:36.669Z,92.54
2019-04-14T04:00:35.672Z,92.54
2019-04-14T04:01:36.654Z,92.60
2019-04-14T04:02:35.949Z,92.75
2019-04-14T04:03:35.413Z,93.48
2019-04-14T04:04:35.851Z,93.54
2019-04-14T04:05:36.675Z,93.23
2019-04-14T04:06:35.641Z,93.27
2019-04-14T04:07:36.411Z,93.59
2019-04-14T04:08:35.542Z,94.00
2019-04-14T04:09:36.432Z,93.12
2019-04-14T04:10:35.702Z,93.69
2019-04-14T04:11:36.544Z,93.33
2019-04-14T04:12:35.763Z,93.65
2019-04-14T04:13:36.558Z,93.79
2019-04-14T04:14:35.732Z,94.52
2019-04-14T04:15:36.427Z,94.31
2019-04-14T04:16:35.514Z,94.37
2019-04-14T04:17:36.294Z,94.52
2019-04-14T04:18:47.449Z,94.73
2019-04-14T04:19:36.239Z,94.31
2019-04-14T04:20:35.267Z,94.31
2019-04-14T04:21:35.569Z,94.42
2019-04-14T04:22:35.198Z,94.00
2019-04-14T04:23:35.652Z,94.94
2019-04-14T04:24:35.218Z,94.94
2019-04-14T04:25:35.372Z,95.78
2019-04-14T04:26:36.476Z,95.25
2019-04-14T04:27:35.243Z,95.46
2019-04-14T04:28:36.326Z,95.46
2019-04-14T04:29:35.159Z,95.78
2019-04-14T04:30:36.209Z,95.78
2019-04-14T04:31:35.118Z,95.29
2019-04-14T04:32:36.238Z,96.03
2019-04-14T04:33:35.080Z,96.09
2019-04-14T04:34:35.859Z,96.13
2019-04-14T04:35:35.063Z,95.72
2019-04-14T04:36:35.643Z,96.09
2019-04-14T04:37:35.040Z,95.92
2019-04-14T04:38:35.582Z,95.98
2019-04-14T04:39:36.563Z,95.67
2019-04-14T04:40:35.344Z,96.71
2019-04-14T04:41:36.328Z,96.03
2019-04-14T04:42:35.169Z,95.82
2019-04-14T04:43:34.986Z,95.78
2019-04-14T04:44:35.638Z,95.88
2019-04-14T04:45:34.961Z,96.23
2019-04-14T04:46:35.167Z,96.09
2019-04-14T04:47:36.168Z,96.09
2019-04-14T04:48:35.022Z,96.19
2019-04-14T04:49:36.059Z,95.88
2019-04-14T04:50:34.916Z,95.88
2019-04-14T04:51:35.702Z,95.67
2019-04-14T04:52:34.891Z,95.36
2019-04-14T04:53:35.417Z,95.46
2019-04-14T04:54:34.875Z,95.88
2019-04-14T04:55:35.167Z,95.88
2019-04-14T04:56:34.840Z,95.46
2019-04-14T04:57:35.166Z,95.56
2019-04-14T04:58:34.891Z,95.56
2019-04-14T04:59:34.824Z,95.56
2019-04-14T05:00:35.259Z,95.88
2019-04-14T05:01:34.831Z,95.46
2019-04-14T05:02:35.289Z,95.88
2019-04-14T05:03:34.766Z,95.46
2019-04-14T05:04:35.106Z,95.88
2019-04-14T05:05:34.758Z,95.78
2019-04-14T05:06:35.124Z,95.88
2019-04-14T05:07:34.763Z,95.36
2019-04-14T05:08:34.860Z,95.83
2019-04-14T05:09:34.703Z,95.98
2019-04-14T05:10:34.999Z,95.88
2019-04-14T05:11:34.686Z,96.19
2019-04-14T05:12:34.919Z,96.40
2019-04-14T05:13:35.901Z,95.78
2019-04-14T05:14:34.805Z,96.40
2019-04-14T05:15:35.562Z,96.71
2019-04-14T05:16:34.655Z,97.38
2019-04-14T05:17:34.620Z,97.24
2019-04-14T05:18:35.554Z,97.13
2019-04-14T05:19:36.547Z,97.44
2019-04-14T05:20:35.605Z,97.38
2019-04-14T05:21:34.583Z,97.17
2019-04-14T05:22:35.393Z,97.44
2019-04-14T05:23:34.562Z,97.28
2019-04-14T05:24:35.351Z,97.70
2019-04-14T05:25:34.547Z,98.01
2019-04-14T05:26:35.132Z,98.32
2019-04-14T05:27:34.551Z,97.80
2019-04-14T05:28:35.280Z,98.43
2019-04-14T05:29:34.509Z,98.74
2019-04-14T05:30:34.988Z,98.85
2019-04-14T05:31:34.476Z,98.74
2019-04-14T05:32:34.774Z,98.85
2019-04-14T05:33:34.475Z,98.53
2019-04-14T05:34:34.769Z,98.69
2019-04-14T05:35:34.447Z,98.01
2019-04-14T05:36:34.648Z,97.86
2019-04-14T05:37:35.463Z,97.97
2019-04-14T05:38:35.505Z,97.97
2019-04-14T05:39:35.421Z,98.07
2019-04-14T05:40:34.413Z,98.18
2019-04-14T05:41:35.415Z,97.86
2019-04-14T05:42:34.359Z,97.61
2019-04-14T05:43:43.843Z,97.44
2019-04-14T05:44:36.107Z,97.50
2019-04-14T05:45:35.119Z,97.55
2019-04-14T05:46:34.321Z,97.40
2019-04-14T05:47:34.997Z,97.34
2019-04-14T05:48:34.353Z,97.65
2019-04-14T05:49:41.108Z,97.44
2019-04-14T05:50:35.695Z,97.44
2019-04-14T05:51:35.094Z,97.97
2019-04-14T05:52:34.258Z,97.86
2019-04-14T05:53:35.120Z,98.02
2019-04-14T05:54:34.252Z,98.07
2019-04-14T05:55:35.169Z,98.07
2019-04-14T05:56:36.118Z,97.92
2019-04-14T05:57:35.168Z,98.23
2019-04-14T05:58:34.199Z,97.75
2019-04-14T05:59:35.235Z,97.61
2019-04-14T06:00:34.260Z,97.75
2019-04-14T06:01:34.185Z,98.07
2019-04-14T06:02:35.508Z,98.28
2019-04-14T06:03:34.280Z,98.02
2019-04-14T06:04:35.235Z,97.92
2019-04-14T06:05:34.141Z,97.92
2019-04-14T06:06:34.116Z,98.19
2019-04-14T06:07:34.169Z,98.19
2019-04-14T06:08:34.099Z,97.67
2019-04-14T06:09:34.083Z,97.14
2019-04-14T06:10:34.081Z,96.79
2019-04-14T06:11:34.082Z,95.85
2019-04-14T06:12:34.050Z,96.06
2019-04-14T06:13:34.046Z,95.75
2019-04-14T06:14:34.041Z,95.81
2019-04-14T06:15:34.021Z,95.50
2019-04-14T06:16:34.015Z,94.76
2019-04-14T06:17:34.008Z,94.14
2019-04-14T06:18:33.989Z,93.79
2019-04-14T06:19:39.041Z,93.79
2019-04-14T06:20:34.966Z,93.79
2019-04-14T06:21:33.966Z,93.64
2019-04-14T06:22:33.957Z,93.01
2019-04-14T06:23:33.934Z,93.54
2019-04-14T06:24:33.939Z,92.64
2019-04-14T06:25:36.264Z,92.95
2019-04-14T06:26:33.952Z,93.74
2019-04-14T06:27:33.893Z,93.74
2019-04-14T06:28:33.911Z,93.01
2019-04-14T06:29:33.871Z,93.12
2019-04-14T06:30:33.882Z,92.97
2019-04-14T06:31:33.860Z,92.35
2019-04-14T06:32:33.843Z,92.10
2019-04-14T06:33:33.844Z,91.37
2019-04-14T06:34:33.920Z,91.33
2019-04-14T06:35:33.844Z,91.02
2019-04-14T06:36:33.826Z,90.60
2019-04-14T06:37:33.825Z,90.35
2019-04-14T06:38:33.812Z,89.62
2019-04-14T06:39:33.770Z,90.14
2019-04-14T06:40:33.781Z,89.94
2019-04-14T06:41:33.745Z,89.94
2019-04-14T06:42:33.856Z,89.31
2019-04-14T06:43:33.753Z,89.56
2019-04-14T06:44:33.736Z,90.08
2019-04-14T06:45:33.727Z,90.45
2019-04-14T06:46:33.725Z,90.50
2019-04-14T06:47:33.710Z,90.50
2019-04-14T06:48:33.679Z,90.50
2019-04-14T06:49:33.684Z,90.50
2019-04-14T06:50:33.669Z,89.42
2019-04-14T06:51:33.747Z,89.37
2019-04-14T06:52:33.866Z,89.48
2019-04-14T06:53:33.687Z,88.71
2019-04-14T06:54:33.693Z,88.79
2019-04-14T06:55:33.689Z,89.79
2019-04-14T06:56:33.603Z,89.52
2019-04-14T06:57:33.635Z,89.83
2019-04-14T06:58:33.590Z,90.56
2019-04-14T06:59:33.562Z,90.56
2019-04-14T07:00:33.632Z,90.45
2019-04-14T07:01:33.540Z,90.66
2019-04-14T07:02:33.542Z,89.79
2019-04-14T07:03:33.561Z,88.85
2019-04-14T07:04:33.656Z,88.79
2019-04-14T07:05:33.491Z,89.11
2019-04-14T07:06:33.492Z,88.28
2019-04-14T07:07:33.578Z,89.04
2019-04-14T07:08:33.678Z,89.42
2019-04-14T07:09:33.611Z,89.94
2019-04-14T07:10:33.474Z,90.45
2019-04-14T07:11:33.439Z,90.62
2019-04-14T07:12:33.474Z,89.21
2019-04-14T07:13:33.575Z,89.52
2019-04-14T07:14:33.439Z,89.37
2019-04-14T07:15:33.427Z,89.13
2019-04-14T07:16:33.391Z,88.54
2019-04-14T07:17:33.394Z,88.96
2019-04-14T07:18:33.384Z,89.23
2019-04-14T07:19:33.347Z,89.03
2019-04-14T07:20:33.355Z,88.36
2019-04-14T07:21:33.372Z,87.63
2019-04-14T07:22:33.313Z,87.53
2019-04-14T07:23:33.333Z,87.88
2019-04-14T07:24:33.291Z,88.30
2019-04-14T07:25:33.373Z,87.12
2019-04-14T07:26:33.311Z,86.95
2019-04-14T07:27:33.288Z,86.95
2019-04-14T07:28:33.268Z,87.57
2019-04-14T07:29:33.237Z,87.12
2019-04-14T07:30:33.235Z,87.12
2019-04-14T07:31:33.230Z,87.49
2019-04-14T07:32:33.206Z,86.47
2019-04-14T07:33:33.200Z,84.68
2019-04-14T07:34:36.110Z,82.50
2019-04-14T07:35:33.171Z,82.05
2019-04-14T07:36:33.223Z,81.84
2019-04-14T07:37:33.167Z,82.15
2019-04-14T07:38:33.156Z,79.67
2019-04-14T07:39:33.145Z,81.12
2019-04-14T07:40:33.172Z,82.01
2019-04-14T07:41:33.116Z,80.53
2019-04-14T07:42:33.148Z,78.81
2019-04-14T07:43:33.120Z,78.91
2019-04-14T07:44:33.087Z,79.29
2019-04-14T07:45:33.110Z,80.01
2019-04-14T07:46:33.251Z,79.19
2019-04-14T07:47:33.117Z,78.50
2019-04-14T07:48:33.042Z,80.98
2019-04-14T07:49:33.028Z,80.53
2019-04-14T07:50:33.018Z,78.91
2019-04-14T07:51:33.013Z,75.09
2019-04-14T07:52:33.030Z,76.12
2019-04-14T07:53:32.981Z,76.64
2019-04-14T07:54:32.975Z,75.39
2019-04-14T07:55:32.953Z,75.01
2019-04-14T07:56:32.988Z,73.95
2019-04-14T07:57:32.946Z,74.02
2019-04-14T07:58:32.928Z,74.36
2019-04-14T07:59:32.938Z,70.76
2019-04-14T08:00:32.912Z,72.54
2019-04-14T08:01:32.892Z,72.06
2019-04-14T08:02:32.896Z,71.10
2019-04-14T08:03:32.869Z,70.79
2019-04-14T08:04:32.861Z,71.03
2019-04-14T08:05:32.847Z,71.58
2019-04-14T08:06:32.868Z,68.40
2019-04-14T08:07:32.873Z,68.22
2019-04-14T08:08:32.820Z,68.80
2019-04-14T08:09:32.850Z,67.85
2019-04-14T08:10:32.794Z,68.35
2019-04-14T08:11:32.782Z,70.07
2019-04-14T08:12:35.124Z,70.42
2019-04-14T08:13:32.847Z,70.45
2019-04-14T08:14:32.758Z,72.47
2019-04-14T08:15:32.754Z,71.14
2019-04-14T08:16:32.727Z,69.50
2019-04-14T08:17:32.714Z,67.11
2019-04-14T08:18:32.731Z,66.40
2019-04-14T08:19:32.752Z,63.32
2019-04-14T08:20:32.682Z,62.68
2019-04-14T08:21:32.674Z,61.60
2019-04-14T08:22:32.680Z,60.28
2019-04-14T08:23:32.692Z,57.91
2019-04-14T08:24:32.653Z,57.04
2019-04-14T08:25:32.665Z,54.36
2019-04-14T08:26:32.623Z,53.77
2019-04-14T08:27:32.666Z,57.78
2019-04-14T08:28:32.599Z,55.18
2019-04-14T08:29:32.616Z,58.39
2019-04-14T08:30:32.593Z,54.21
2019-04-14T08:31:32.566Z,55.30
2019-04-14T08:32:32.555Z,52.20
2019-04-14T08:33:32.549Z,53.14
2019-04-14T08:34:32.558Z,51.14
2019-04-14T08:35:32.525Z,54.36
2019-04-14T08:36:33.354Z,51.85
2019-04-14T08:37:32.516Z,47.91
2019-04-14T08:38:32.490Z,49.01
2019-04-14T08:39:32.501Z,51.01
2019-04-14T08:40:32.475Z,50.81
2019-04-14T08:41:32.483Z,51.03
2019-04-14T08:42:32.517Z,50.96
2019-04-14T08:43:32.459Z,50.28
2019-04-14T08:44:32.426Z,50.92
2019-04-14T08:45:32.418Z,46.03
2019-04-14T08:46:32.443Z,41.67
2019-04-14T08:47:32.432Z,41.45
2019-04-14T08:48:32.407Z,43.02
2019-04-14T08:49:32.371Z,44.84
2019-04-14T08:50:39.360Z,44.17
2019-04-14T08:51:33.367Z,44.88
2019-04-14T08:52:32.376Z,43.18
2019-04-14T08:53:32.329Z,44.11
2019-04-14T08:54:32.320Z,41.75
2019-04-14T08:55:32.381Z,40.78
2019-04-14T08:56:32.363Z,42.58
2019-04-14T08:57:32.291Z,40.39
2019-04-14T08:58:32.318Z,40.06
2019-04-14T08:59:32.281Z,40.55
2019-04-14T09:00:32.317Z,41.18
2019-04-14T09:01:32.246Z,43.18
2019-04-14T09:02:32.248Z,42.15
2019-04-14T09:03:32.233Z,44.94
2019-04-14T09:04:32.216Z,43.71
2019-04-14T09:05:32.224Z,41.41
2019-04-14T09:06:32.264Z,43.83
2019-04-14T09:07:32.186Z,43.97
2019-04-14T09:08:32.193Z,40.99
2019-04-14T09:09:32.166Z,41.09
2019-04-14T09:10:32.153Z,40.80
2019-04-14T09:11:32.144Z,41.91
2019-04-14T09:12:32.179Z,44.70
2019-04-14T09:13:32.122Z,42.84
2019-04-14T09:14:32.123Z,40.92
2019-04-14T09:15:32.119Z,41.83
2019-04-14T09:16:32.091Z,43.23
2019-04-14T09:17:32.081Z,42.03
2019-04-14T09:18:32.084Z,39.67
2019-04-14T09:19:32.075Z,42.35
2019-04-14T09:20:32.052Z,40.90
2019-04-14T09:21:32.041Z,43.32
2019-04-14T09:22:32.031Z,40.82
2019-04-14T09:23:32.022Z,39.79
2019-04-14T09:24:32.053Z,43.81
2019-04-14T09:25:32.001Z,44.37
2019-04-14T09:26:31.991Z,43.12
2019-04-14T09:27:32.046Z,40.94
2019-04-14T09:28:32.010Z,41.41
2019-04-14T09:29:31.962Z,40.86
2019-04-14T09:30:31.990Z,37.34
2019-04-14T09:31:31.942Z,33.83
2019-04-14T09:32:31.930Z,35.03
2019-04-14T09:33:31.939Z,36.69
2019-04-14T09:34:31.928Z,33.04
2019-04-14T09:35:31.900Z,33.11
2019-04-14T09:36:31.931Z,34.74
2019-04-14T09:37:31.879Z,33.01
2019-04-14T09:38:31.908Z,36.28
2019-04-14T09:39:31.865Z,34.28
2019-04-14T09:40:31.849Z,35.83
2019-04-14T09:41:31.853Z,38.13
2019-04-14T09:42:31.891Z,37.37
2019-04-14T09:43:31.822Z,37.10
2019-04-14T09:44:31.809Z,39.25
2019-04-14T09:45:31.801Z,41.22
2019-04-14T09:46:31.803Z,39.21
2019-04-14T09:47:31.783Z,39.50
2019-04-14T09:48:31.872Z,39.65
2019-04-14T09:49:31.758Z,39.70
2019-04-14T09:50:31.748Z,39.65
2019-04-14T09:51:31.774Z,40.66
2019-04-14T09:52:31.729Z,36.90
2019-04-14T09:53:31.734Z,37.73
2019-04-14T09:54:31.766Z,40.52
2019-04-14T09:55:31.699Z,43.77
2019-04-14T09:56:31.687Z,45.12
2019-04-14T09:57:31.679Z,43.37
2019-04-14T09:58:31.668Z,40.84
2019-04-14T09:59:31.654Z,34.96
2019-04-14T10:00:31.699Z,33.70
2019-04-14T10:01:31.649Z,33.98
2019-04-14T10:02:31.633Z,37.21
2019-04-14T10:03:31.672Z,39.00
2019-04-14T10:04:31.601Z,41.04
2019-04-14T10:05:31.590Z,36.54
2019-04-14T10:06:31.638Z,34.07
2019-04-14T10:07:31.569Z,35.03
2019-04-14T10:08:31.568Z,31.76
2019-04-14T10:09:31.549Z,31.82
2019-04-14T10:10:31.537Z,30.81
2019-04-14T10:11:31.548Z,30.85
2019-04-14T10:12:31.555Z,31.93
2019-04-14T10:13:31.507Z,32.30
2019-04-14T10:14:31.509Z,32.35
2019-04-14T10:15:31.485Z,29.43
2019-04-14T10:16:31.486Z,28.19
2019-04-14T10:17:31.466Z,30.28
2019-04-14T10:18:31.495Z,33.36
2019-04-14T10:19:31.444Z,32.93
2019-04-14T10:20:31.439Z,32.09
2019-04-14T10:21:31.462Z,32.36
2019-04-14T10:22:34.068Z,29.82
2019-04-14T10:23:31.403Z,30.88
2019-04-14T10:24:31.427Z,30.18
2019-04-14T10:25:31.396Z,32.35
2019-04-14T10:26:31.374Z,32.55
2019-04-14T10:27:31.359Z,30.93
2019-04-14T10:28:31.350Z,31.22
2019-04-14T10:29:31.336Z,30.74
2019-04-14T10:30:31.355Z,33.35
2019-04-14T10:31:31.393Z,32.46
2019-04-14T10:32:31.309Z,29.77
2019-04-14T10:33:31.295Z,29.24
2019-04-14T10:34:31.295Z,29.19
2019-04-14T10:35:31.272Z,30.01
2019-04-14T10:36:31.277Z,32.23
2019-04-14T10:37:31.281Z,31.95
2019-04-14T10:38:31.243Z,30.80
2019-04-14T10:39:31.230Z,34.37
2019-04-14T10:40:31.219Z,33.64
2019-04-14T10:41:31.225Z,35.08
2019-04-14T10:42:31.198Z,36.87
2019-04-14T10:43:31.227Z,39.75
2019-04-14T10:44:31.177Z,40.41
2019-04-14T10:45:31.166Z,40.62
2019-04-14T10:46:31.157Z,40.09
2019-04-14T10:47:31.167Z,39.44
2019-04-14T10:48:31.136Z,39.62
2019-04-14T10:49:31.145Z,41.31
2019-04-14T10:50:31.416Z,40.01
2019-04-14T10:51:33.955Z,39.97
2019-04-14T10:52:31.102Z,40.78
2019-04-14T10:53:31.091Z,40.46
2019-04-14T10:54:31.071Z,39.87
2019-04-14T10:55:31.078Z,40.21
2019-04-14T10:56:31.049Z,41.35
2019-04-14T10:57:31.064Z,41.16
2019-04-14T10:58:31.038Z,39.62
2019-04-14T10:59:31.046Z,41.20
2019-04-14T11:00:31.009Z,41.33
2019-04-14T11:01:31.004Z,43.57
2019-04-14T11:02:30.985Z,42.94
2019-04-14T11:03:30.989Z,43.02
2019-04-14T11:04:30.963Z,42.90
2019-04-14T11:05:30.952Z,39.51
2019-04-14T11:06:30.941Z,41.74
2019-04-14T11:07:30.946Z,42.02
2019-04-14T11:08:30.919Z,40.01
2019-04-14T11:09:30.930Z,41.06
2019-04-14T11:10:30.898Z,40.23
2019-04-14T11:11:30.899Z,43.29
2019-04-14T11:12:30.901Z,42.88
2019-04-14T11:13:30.866Z,40.94
2019-04-14T11:14:30.857Z,41.35
2019-04-14T11:15:30.857Z,42.96
2019-04-14T11:16:30.835Z,41.74
2019-04-14T11:17:30.824Z,41.53
2019-04-14T11:18:30.855Z,41.49
2019-04-14T11:19:30.802Z,42.02
2019-04-14T11:20:30.820Z,41.94
2019-04-14T11:21:42.012Z,42.24
2019-04-14T11:22:31.916Z,42.24
2019-04-14T11:23:30.862Z,41.85
2019-04-14T11:24:30.772Z,42.61
2019-04-14T11:25:30.749Z,43.14
2019-04-14T11:26:30.743Z,43.04
2019-04-14T11:27:30.734Z,43.32
2019-04-14T11:28:30.708Z,43.12
2019-04-14T11:29:30.703Z,43.82
2019-04-14T11:30:30.786Z,42.08
2019-04-14T11:31:30.676Z,43.69
2019-04-14T11:32:30.660Z,43.82
2019-04-14T11:33:30.689Z,42.47
2019-04-14T11:34:30.665Z,42.26
2019-04-14T11:35:30.639Z,44.38
2019-04-14T11:36:30.619Z,42.24
2019-04-14T11:37:30.606Z,41.73
2019-04-14T11:38:30.657Z,41.94
2019-04-14T11:39:30.590Z,42.33
2019-04-14T11:40:30.585Z,40.08
2019-04-14T11:41:30.580Z,41.51
2019-04-14T11:42:30.554Z,41.41
2019-04-14T11:43:30.558Z,41.42
2019-04-14T11:44:30.578Z,41.92
2019-04-14T11:45:30.546Z,40.81
2019-04-14T11:46:30.511Z,43.57
2019-04-14T11:47:30.497Z,41.41
2019-04-14T11:48:30.485Z,42.02
2019-04-14T11:49:30.501Z,43.23
2019-04-14T11:50:30.583Z,41.86
2019-04-14T11:51:30.458Z,42.45
2019-04-14T11:52:30.454Z,41.14
2019-04-14T11:53:30.477Z,40.21
2019-04-14T11:54:30.441Z,42.06
2019-04-14T11:55:30.413Z,40.84
2019-04-14T11:56:30.508Z,41.05
2019-04-14T11:57:30.411Z,41.14
2019-04-14T11:58:30.388Z,41.35
2019-04-14T11:59:30.374Z,41.37
2019-04-14T12:00:30.371Z,41.86
2019-04-14T12:01:30.374Z,39.72
2019-04-14T12:02:30.364Z,40.92
2019-04-14T12:03:32.286Z,40.94
2019-04-14T12:04:30.348Z,41.35
2019-04-14T12:05:30.305Z,41.25
2019-04-14T12:06:30.315Z,40.05
2019-04-14T12:07:30.302Z,39.74
2019-04-14T12:08:30.310Z,41.49
2019-04-14T12:09:30.264Z,41.49
2019-04-14T12:10:30.265Z,41.27
2019-04-14T12:11:30.239Z,43.00
2019-04-14T12:12:30.241Z,41.45
2019-04-14T12:13:30.232Z,41.16
2019-04-14T12:14:30.239Z,41.19
2019-04-14T12:15:30.247Z,41.89
2019-04-14T12:16:30.185Z,41.98
2019-04-14T12:17:30.175Z,41.88
2019-04-14T12:18:30.164Z,41.06
2019-04-14T12:19:30.181Z,39.76
2019-04-14T12:20:30.139Z,42.21
2019-04-14T12:21:30.158Z,41.41
2019-04-14T12:22:30.184Z,42.30
2019-04-14T12:23:30.258Z,41.28
2019-04-14T12:24:30.119Z,40.59
2019-04-14T12:25:30.105Z,42.00
2019-04-14T12:26:30.131Z,43.61
2019-04-14T12:27:30.062Z,39.84
2019-04-14T12:28:30.063Z,40.86
2019-04-14T12:29:30.485Z,42.27
2019-04-14T12:30:31.218Z,41.21
2019-04-14T12:31:30.956Z,39.29
2019-04-14T12:32:30.027Z,40.39
2019-04-14T12:33:30.014Z,39.92
2019-04-14T12:34:29.989Z,40.84
2019-04-14T12:35:29.986Z,41.25
2019-04-14T12:36:29.979Z,40.84
2019-04-14T12:37:29.961Z,42.69
2019-04-14T12:38:29.986Z,43.91
2019-04-14T12:39:29.953Z,41.67
2019-04-14T12:40:29.926Z,41.66
2019-04-14T12:41:30.994Z,41.23
2019-04-14T12:42:29.929Z,40.72
2019-04-14T12:43:29.902Z,39.31
2019-04-14T12:44:29.884Z,41.53
2019-04-14T12:45:29.896Z,41.31
2019-04-14T12:46:29.887Z,41.47
2019-04-14T12:47:29.844Z,39.76
2019-04-14T12:48:29.832Z,39.06
2019-04-14T12:49:29.918Z,39.70
2019-04-14T12:50:29.810Z,38.70
2019-04-14T12:51:29.814Z,39.25
2019-04-14T12:52:29.841Z,39.86
2019-04-14T12:53:29.779Z,39.98
2019-04-14T12:54:29.780Z,40.78
2019-04-14T12:55:29.790Z,40.84
2019-04-14T12:56:29.769Z,40.53
2019-04-14T12:57:29.742Z,41.16
2019-04-14T12:58:29.764Z,42.49
2019-04-14T12:59:29.727Z,42.59
2019-04-14T13:00:29.716Z,43.43
2019-04-14T13:01:29.707Z,42.30
2019-04-14T13:02:29.684Z,41.82
2019-04-14T13:03:29.674Z,42.35
2019-04-14T13:04:29.658Z,42.47
2019-04-14T13:05:29.716Z,42.47
2019-04-14T13:06:29.642Z,42.57
2019-04-14T13:07:29.628Z,42.26
2019-04-14T13:08:29.616Z,41.88
2019-04-14T13:09:29.603Z,41.36
2019-04-14T13:10:29.608Z,42.36
2019-04-14T13:11:29.621Z,42.67
2019-04-14T13:12:29.570Z,42.53
2019-04-14T13:13:29.559Z,42.22
2019-04-14T13:14:29.549Z,41.53
2019-04-14T13:15:29.569Z,43.24